Time;durP1;ratioP1;P1;durP2;ratioP2;P2;SDS_P1;SDS_P2;PMS_P1;PMS_P2;Temp;Humidity;BMP_temperature;BMP_pressure;BME280_temperature;BME280_humidity;BME280_pressure;Samples;Min_cycle;Max_cycle;Signal;HPM_P1;HPM_P2
2023/11/16 06:29:14;;;;;;;1999.90;999.90;;;;;;;;;;5336122;23;20273;-67
2023/11/16 06:31:41;;;;;;;1999.90;999.90;;;;;;;;;;4894011;29;20096;-68
2023/11/16 06:34:08;;;;;;;1999.90;999.90;;;;;;;;;;4879953;29;20029;-71
2023/11/16 06:36:34;;;;;;;1999.90;999.90;;;;;;;;;;4879812;29;20397;-71
2023/11/16 06:39:02;;;;;;;1999.90;999.90;;;;;;;;;;4882082;29;20377;-69
2023/11/16 06:41:29;;;;;;;1999.90;999.90;;;;;;;;;;4894598;29;20048;-68
2023/11/16 06:43:57;;;;;;;1999.90;999.90;;;;;;;;;;4880134;29;20401;-69
2023/11/16 06:46:27;;;;;;;1999.90;999.90;;;;;;;;;;4884884;29;20036;-71
2023/11/16 06:48:53;;;;;;;1999.90;999.90;;;;;;;;;;4879477;29;20426;-72
2023/11/16 06:51:19;;;;;;;1999.90;999.90;;;;;;;;;;4879476;29;20104;-70
2023/11/16 06:53:46;;;;;;;1999.90;999.90;;;;;;;;;;4879475;29;20036;-74
2023/11/16 06:56:12;;;;;;;1999.90;999.90;;;;;;;;;;4893431;29;20456;-75
2023/11/16 06:58:40;;;;;;;1999.90;999.90;;;;;;;;;;4878913;29;20373;-75
2023/11/16 07:01:06;;;;;;;1999.90;999.90;;;;;;;;;;4879422;29;20048;-77
2023/11/16 07:03:33;;;;;;;1999.90;999.90;;;;;;;;;;4879238;29;20108;-74
2023/11/16 07:05:59;;;;;;;1999.90;999.90;;;;;;;;;;4878785;29;20482;-74
2023/11/16 07:08:25;;;;;;;1999.90;999.90;;;;;;;;;;4879188;29;20104;-73
2023/11/16 07:10:51;;;;;;;1999.90;999.90;;;;;;;;;;4879237;29;20473;-74
2023/11/16 07:13:19;;;;;;;1999.90;999.90;;;;;;;;;;4879459;29;20032;-78
2023/11/16 07:15:48;;;;;;;1999.90;999.90;;;;;;;;;;4879797;29;20036;-79
2023/11/16 07:18:16;;;;;;;1999.90;999.90;;;;;;;;;;4893897;29;20057;-76
2023/11/16 07:20:45;;;;;;;1999.90;999.90;;;;;;;;;;4879611;29;20431;-77
2023/11/16 07:23:11;;;;;;;1999.90;999.90;;;;;;;;;;4879123;29;20101;-72
2023/11/16 07:25:38;;;;;;;1999.90;999.90;;;;;;;;;;4879427;29;20512;-74
2023/11/16 07:28:07;;;;;;;1999.90;999.90;;;;;;;;;;4879006;29;20035;-72
2023/11/16 07:30:35;;;;;;;1999.90;999.90;;;;;;;;;;4878477;29;20601;-76
2023/11/16 07:33:03;;;;;;;1999.90;999.90;;;;;;;;;;4880230;29;20473;-74
2023/11/16 07:35:33;;;;;;;1999.90;999.90;;;;;;;;;;4879359;29;20191;-72
2023/11/16 07:38:00;;;;;;;1999.90;999.90;;;;;;;;;;4879894;29;20120;-72
2023/11/16 07:40:27;;;;;;;1999.90;999.90;;;;;;;;;;4878926;29;20021;-75
2023/11/16 07:42:53;;;;;;;1999.90;999.90;;;;;;;;;;4878769;29;20081;-74
2023/11/16 07:45:19;;;;;;;1999.90;999.90;;;;;;;;;;4878668;29;20029;-71
2023/11/16 07:47:47;;;;;;;1999.90;999.90;;;;;;;;;;4878843;29;20093;-76
2023/11/16 07:50:13;;;;;;;1999.90;999.90;;;;;;;;;;4878648;29;20021;-76
2023/11/16 07:52:43;;;;;;;1999.90;999.90;;;;;;;;;;4878344;29;20029;-76
2023/11/16 07:55:19;;;;;;;1999.90;999.90;;;;;;;;;;4878452;29;20165;-71
2023/11/16 07:57:47;;;;;;;1999.90;999.90;;;;;;;;;;4878472;29;20085;-72
2023/11/16 08:00:22;;;;;;;1999.90;999.90;;;;;;;;;;4878344;29;20033;-70
2023/11/16 08:05:34;;;;;;;1999.90;999.90;;;;;;;;;;4877948;29;20446;-71
2023/11/16 08:08:03;;;;;;;1999.90;999.90;;;;;;;;;;4877705;29;20559;-81
2023/11/16 08:10:29;;;;;;;1999.90;999.90;;;;;;;;;;4878040;29;20048;-78
2023/11/16 08:12:56;;;;;;;1999.90;999.90;;;;;;;;;;4877829;29;20052;-76
2023/11/16 08:15:24;;;;;;;1999.90;999.90;;;;;;;;;;4878242;29;20055;-78
2023/11/16 08:17:54;;;;;;;1999.90;999.90;;;;;;;;;;4877259;29;20032;-72
2023/11/16 08:20:23;;;;;;;1999.90;999.90;;;;;;;;;;4877449;29;20080;-73
2023/11/16 08:22:50;;;;;;;1999.90;999.90;;;;;;;;;;4877746;29;20037;-77
2023/11/16 08:25:18;;;;;;;1999.90;999.90;;;;;;;;;;4877020;29;20117;-69
2023/11/16 08:27:44;;;;;;;1999.90;999.90;;;;;;;;;;4877780;29;20044;-69
2023/11/16 08:30:11;;;;;;;1999.90;999.90;;;;;;;;;;4877364;29;20049;-67
2023/11/16 08:32:37;;;;;;;1999.90;999.90;;;;;;;;;;4877566;29;20025;-70
2023/11/16 08:35:03;;;;;;;1999.90;999.90;;;;;;;;;;4876670;29;20044;-70
2023/11/16 08:37:29;;;;;;;1999.90;999.90;;;;;;;;;;4876097;29;20032;-68
2023/11/16 08:39:55;;;;;;;1999.90;999.90;;;;;;;;;;4877321;29;20024;-76
2023/11/16 08:42:24;;;;;;;1999.90;999.90;;;;;;;;;;4877151;29;20421;-71
2023/11/16 08:44:50;;;;;;;1999.90;999.90;;;;;;;;;;4877231;29;20062;-71
2023/11/16 08:47:18;;;;;;;1999.90;999.90;;;;;;;;;;4876834;29;20032;-66
2023/11/16 08:49:44;;;;;;;1999.90;999.90;;;;;;;;;;4877757;29;20029;-64
2023/11/16 08:52:14;;;;;;;1999.90;999.90;;;;;;;;;;4877376;29;20044;-70
2023/11/16 08:54:42;;;;;;;1999.90;999.90;;;;;;;;;;4877386;29;20379;-82
2023/11/16 08:57:08;;;;;;;1999.90;999.90;;;;;;;;;;4877210;29;20029;-81
2023/11/16 08:59:35;;;;;;;1999.90;999.90;;;;;;;;;;4877575;29;20033;-64
2023/11/16 09:02:02;;;;;;;1999.90;999.90;;;;;;;;;;4877132;29;20128;-71
2023/11/16 09:04:28;;;;;;;1999.90;999.90;;;;;;;;;;4877388;29;20029;-71
2023/11/16 09:06:54;;;;;;;1999.90;999.90;;;;;;;;;;4876581;29;20108;-65
2023/11/16 09:09:35;;;;;;;1999.90;999.90;;;;;;;;;;4861459;29;20472;-67
2023/11/16 09:12:12;;;;;;;1999.90;999.90;;;;;;;;;;4858454;29;20033;-70
2023/11/16 09:14:40;;;;;;;1999.90;999.90;;;;;;;;;;4858560;29;20030;-66
2023/11/16 09:17:16;;;;;;;1999.90;999.90;;;;;;;;;;4858355;29;20581;-66
2023/11/16 09:19:43;;;;;;;1999.90;999.90;;;;;;;;;;4871360;29;20044;-76
2023/11/16 09:22:09;;;;;;;1999.90;999.90;;;;;;;;;;4885303;29;20047;-85
2023/11/16 09:24:37;;;;;;;1999.90;999.90;;;;;;;;;;4886416;29;20497;-65
2023/11/16 09:27:04;;;;;;;1999.90;999.90;;;;;;;;;;4883566;29;20116;-66
2023/11/16 09:29:30;;;;;;;1999.90;999.90;;;;;;;;;;4887267;29;20108;-70
2023/11/16 09:31:56;;;;;;;1999.90;999.90;;;;;;;;;;4889744;29;20039;-77
2023/11/16 09:34:23;;;;;;;1999.90;999.90;;;;;;;;;;4890895;29;20028;-83
2023/11/16 09:36:50;;;;;;;1999.90;999.90;;;;;;;;;;4892303;29;20115;-74
2023/11/16 09:39:16;;;;;;;1999.90;999.90;;;;;;;;;;4890212;29;20021;-80
2023/11/16 09:41:45;;;;;;;1999.90;999.90;;;;;;;;;;4891825;29;20041;-77
2023/11/16 09:44:14;;;;;;;1999.90;999.90;;;;;;;;;;4899178;29;20056;-66
2023/11/16 09:46:44;;;;;;;1999.90;999.90;;;;;;;;;;4899315;29;20552;-79
2023/11/16 09:49:11;;;;;;;1999.90;999.90;;;;;;;;;;4899914;29;20035;-85
2023/11/16 09:51:39;;;;;;;1999.90;999.90;;;;;;;;;;4899559;29;20032;-79
2023/11/16 09:54:08;;;;;;;1999.90;999.90;;;;;;;;;;4899107;29;20055;-68
2023/11/16 09:56:40;;;;;;;1999.90;999.90;;;;;;;;;;4899257;29;20393;-64
2023/11/16 09:59:13;;;;;;;1999.90;999.90;;;;;;;;;;4899320;29;20478;-84
2023/11/16 10:01:52;;;;;;;1999.90;999.90;;;;;;;;;;4898644;29;20044;-85
2023/11/16 10:04:19;;;;;;;1999.90;999.90;;;;;;;;;;4899185;29;20129;-64
2023/11/16 10:06:48;;;;;;;1999.90;999.90;;;;;;;;;;4898975;29;20052;-68
2023/11/16 10:09:14;;;;;;;1999.90;999.90;;;;;;;;;;4899245;29;20020;-81
2023/11/16 10:11:40;;;;;;;1999.90;999.90;;;;;;;;;;4898538;29;20442;-71
2023/11/16 10:14:07;;;;;;;1999.90;999.90;;;;;;;;;;4898937;29;20024;-74
2023/11/16 10:16:33;;;;;;;1999.90;999.90;;;;;;;;;;4898438;29;20032;-66
2023/11/16 10:18:59;;;;;;;1999.90;999.90;;;;;;;;;;4898451;29;20029;-85
2023/11/16 10:21:25;;;;;;;1999.90;999.90;;;;;;;;;;4898690;29;20032;-76
2023/11/16 10:23:52;;;;;;;1999.90;999.90;;;;;;;;;;4899106;29;20029;-85
2023/11/16 10:26:19;;;;;;;1999.90;999.90;;;;;;;;;;4898615;29;20056;-74
2023/11/16 10:28:53;;;;;;;1999.90;999.90;;;;;;;;;;4899480;29;20064;-68
2023/11/16 10:31:21;;;;;;;1999.90;999.90;;;;;;;;;;4904582;29;20046;-65
2023/11/16 10:33:47;;;;;;;1999.90;999.90;;;;;;;;;;4901892;29;20115;-65
2023/11/16 10:36:13;;;;;;;1999.90;999.90;;;;;;;;;;4899665;29;20042;-66
2023/11/16 10:38:39;;;;;;;1999.90;999.90;;;;;;;;;;4898648;29;20031;-79
2023/11/16 10:41:06;;;;;;;1999.90;999.90;;;;;;;;;;4897314;29;20517;-79
2023/11/16 10:43:32;;;;;;;1999.90;999.90;;;;;;;;;;4898054;29;20037;-78
2023/11/16 10:46:09;;;;;;;1999.90;999.90;;;;;;;;;;4898518;29;20025;-77
2023/11/16 10:48:35;;;;;;;1999.90;999.90;;;;;;;;;;4897934;29;20397;-67
2023/11/16 10:51:01;;;;;;;1999.90;999.90;;;;;;;;;;4883692;29;20256;-67
2023/11/16 10:53:37;;;;;;;1999.90;999.90;;;;;;;;;;4879076;29;20029;-65
2023/11/16 10:56:08;;;;;;;1999.90;999.90;;;;;;;;;;4879560;29;20029;-80
2023/11/16 10:58:38;;;;;;;1999.90;999.90;;;;;;;;;;4862593;29;20048;-81
2023/11/16 11:01:10;;;;;;;1999.90;999.90;;;;;;;;;;4859701;29;20128;-68
2023/11/16 11:03:36;;;;;;;1999.90;999.90;;;;;;;;;;4860107;29;20040;-67
2023/11/16 11:06:04;;;;;;;1999.90;999.90;;;;;;;;;;4859978;29;20037;-68
2023/11/16 11:08:38;;;;;;;1999.90;999.90;;;;;;;;;;4860604;29;20025;-72
2023/11/16 11:11:04;;;;;;;1999.90;999.90;;;;;;;;;;4860142;29;20113;-72
2023/11/16 11:13:32;;;;;;;1999.90;999.90;;;;;;;;;;4858369;29;20149;-66
2023/11/16 11:16:07;;;;;;;1999.90;999.90;;;;;;;;;;4859545;29;20747;-66
2023/11/16 11:18:44;;;;;;;1999.90;999.90;;;;;;;;;;4860075;29;20069;-75
2023/11/16 11:21:10;;;;;;;1999.90;999.90;;;;;;;;;;4859106;29;20100;-66
2023/11/16 11:23:37;;;;;;;1999.90;999.90;;;;;;;;;;4860292;29;20061;-74
2023/11/16 11:26:07;;;;;;;1999.90;999.90;;;;;;;;;;4860439;29;20476;-81
2023/11/16 11:28:35;;;;;;;1999.90;999.90;;;;;;;;;;4860254;29;20070;-79
2023/11/16 11:31:04;;;;;;;1999.90;999.90;;;;;;;;;;4859692;29;20119;-69
2023/11/16 11:33:34;;;;;;;1999.90;999.90;;;;;;;;;;4860168;29;20478;-70
2023/11/16 11:36:08;;;;;;;1999.90;999.90;;;;;;;;;;4860001;29;20041;-63
2023/11/16 11:38:38;;;;;;;1999.90;999.90;;;;;;;;;;4859606;29;20389;-71
2023/11/16 11:41:09;;;;;;;1999.90;999.90;;;;;;;;;;4859938;29;20146;-64
2023/11/16 11:43:38;;;;;;;1999.90;999.90;;;;;;;;;;4859687;29;20056;-71
2023/11/16 11:46:05;;;;;;;1999.90;999.90;;;;;;;;;;4859768;29;20026;-71
2023/11/16 11:48:33;;;;;;;1999.90;999.90;;;;;;;;;;4859980;29;20041;-64
2023/11/16 11:51:04;;;;;;;1999.90;999.90;;;;;;;;;;4859322;29;20033;-75
2023/11/16 11:53:33;;;;;;;1999.90;999.90;;;;;;;;;;4859246;29;20034;-63
2023/11/16 11:56:01;;;;;;;1999.90;999.90;;;;;;;;;;4858830;29;20048;-74
2023/11/16 11:58:27;;;;;;;1999.90;999.90;;;;;;;;;;4859573;29;20146;-62
2023/11/16 12:00:55;;;;;;;1999.90;999.90;;;;;;;;;;4859482;29;20157;-77
2023/11/16 12:03:21;;;;;;;1999.90;999.90;;;;;;;;;;4859680;29;20034;-76
2023/11/16 12:05:55;;;;;;;1999.90;999.90;;;;;;;;;;4859181;29;20052;-73
2023/11/16 12:08:22;;;;;;;1999.90;999.90;;;;;;;;;;4859341;29;20493;-63
2023/11/16 12:10:48;;;;;;;1999.90;999.90;;;;;;;;;;4859526;29;20036;-75
2023/11/16 12:13:14;;;;;;;1999.90;999.90;;;;;;;;;;4859337;29;20510;-65
2023/11/16 12:15:42;;;;;;;1999.90;999.90;;;;;;;;;;4858919;29;20356;-67
2023/11/16 12:18:10;;;;;;;1999.90;999.90;;;;;;;;;;4859223;29;20108;-72
2023/11/16 12:20:40;;;;;;;1999.90;999.90;;;;;;;;;;4858758;29;20490;-74
2023/11/16 12:23:08;;;;;;;1999.90;999.90;;;;;;;;;;4859178;29;20037;-74
2023/11/16 12:25:36;;;;;;;1999.90;999.90;;;;;;;;;;4859514;29;20033;-69
2023/11/16 12:28:04;;;;;;;1999.90;999.90;;;;;;;;;;4859375;29;20036;-69
2023/11/16 12:30:30;;;;;;;1999.90;999.90;;;;;;;;;;4858590;29;20407;-75
2023/11/16 12:32:56;;;;;;;1999.90;999.90;;;;;;;;;;4858996;29;20034;-71
2023/11/16 12:35:22;;;;;;;1999.90;999.90;;;;;;;;;;4869774;29;20029;-77
2023/11/16 12:37:50;;;;;;;1999.90;999.90;;;;;;;;;;4872805;29;20108;-76
2023/11/16 12:40:18;;;;;;;1999.90;999.90;;;;;;;;;;4861775;29;20041;-76
2023/11/16 12:42:45;;;;;;;1999.90;999.90;;;;;;;;;;4859270;29;20052;-75
2023/11/16 12:45:11;;;;;;;1999.90;999.90;;;;;;;;;;4858590;29;20053;-73
2023/11/16 12:47:38;;;;;;;1999.90;999.90;;;;;;;;;;4858521;29;20029;-75
2023/11/16 12:50:07;;;;;;;1999.90;999.90;;;;;;;;;;4858582;29;20033;-69
2023/11/16 12:52:37;;;;;;;1999.90;999.90;;;;;;;;;;4858580;29;20542;-75
2023/11/16 12:55:04;;;;;;;1999.90;999.90;;;;;;;;;;4858607;29;20026;-74
2023/11/16 12:57:33;;;;;;;1999.90;999.90;;;;;;;;;;4858815;29;20131;-72
2023/11/16 13:00:00;;;;;;;1999.90;999.90;;;;;;;;;;4857001;29;20049;-70
2023/11/16 13:02:26;;;;;;;1999.90;999.90;;;;;;;;;;4858454;29;20390;-70
2023/11/16 13:04:52;;;;;;;1999.90;999.90;;;;;;;;;;4857594;29;20714;-78
2023/11/16 13:07:18;;;;;;;1999.90;999.90;;;;;;;;;;4858712;29;20494;-68
2023/11/16 13:09:44;;;;;;;1999.90;999.90;;;;;;;;;;4858357;29;20409;-68
2023/11/16 13:12:10;;;;;;;1999.90;999.90;;;;;;;;;;4858736;29;20519;-76
2023/11/16 13:14:36;;;;;;;1999.90;999.90;;;;;;;;;;4858820;29;20025;-70
2023/11/16 13:17:03;;;;;;;1999.90;999.90;;;;;;;;;;4857087;29;20022;-67
2023/11/16 13:19:29;;;;;;;1999.90;999.90;;;;;;;;;;4858126;29;20041;-68
2023/11/16 13:21:55;;;;;;;1999.90;999.90;;;;;;;;;;4858199;29;20490;-68
2023/11/16 13:24:21;;;;;;;1999.90;999.90;;;;;;;;;;4858508;29;20063;-77
2023/11/16 13:26:47;;;;;;;1999.90;999.90;;;;;;;;;;4858410;29;20038;-72
2023/11/16 13:29:14;;;;;;;1999.90;999.90;;;;;;;;;;4856999;29;20049;-68
2023/11/16 13:31:40;;;;;;;1999.90;999.90;;;;;;;;;;4858385;29;20036;-68
2023/11/16 13:34:07;;;;;;;1999.90;999.90;;;;;;;;;;4858615;29;20030;-69
2023/11/16 13:36:33;;;;;;;1999.90;999.90;;;;;;;;;;4858906;29;20029;-69
2023/11/16 13:39:00;;;;;;;1999.90;999.90;;;;;;;;;;4859079;29;20109;-69
2023/11/16 13:41:26;;;;;;;1999.90;999.90;;;;;;;;;;4858881;29;20037;-72
2023/11/16 13:43:52;;;;;;;1999.90;999.90;;;;;;;;;;4859411;29;20030;-71
2023/11/16 13:46:20;;;;;;;1999.90;999.90;;;;;;;;;;4858998;29;20853;-71
2023/11/16 13:48:46;;;;;;;1999.90;999.90;;;;;;;;;;4858408;29;20073;-70
2023/11/16 13:51:12;;;;;;;1999.90;999.90;;;;;;;;;;4858058;29;20068;-74
2023/11/16 13:53:38;;;;;;;1999.90;999.90;;;;;;;;;;4858176;29;20168;-72
2023/11/16 13:56:05;;;;;;;1999.90;999.90;;;;;;;;;;4857993;29;20376;-75
2023/11/16 13:58:31;;;;;;;1999.90;999.90;;;;;;;;;;4858101;29;20363;-75
2023/11/16 14:00:58;;;;;;;1999.90;999.90;;;;;;;;;;4857416;29;20492;-69
2023/11/16 14:03:24;;;;;;;1999.90;999.90;;;;;;;;;;4857893;29;20037;-71
2023/11/16 14:05:50;;;;;;;1999.90;999.90;;;;;;;;;;4858256;29;20401;-76
2023/11/16 14:08:18;;;;;;;1999.90;999.90;;;;;;;;;;4858743;29;20113;-71
2023/11/16 14:10:45;;;;;;;1999.90;999.90;;;;;;;;;;4870383;29;20021;-75
2023/11/16 14:13:11;;;;;;;1999.90;999.90;;;;;;;;;;4876583;29;20031;-72
2023/11/16 14:15:38;;;;;;;1999.90;999.90;;;;;;;;;;4878353;29;20092;-67
2023/11/16 14:18:04;;;;;;;1999.90;999.90;;;;;;;;;;4880034;29;20841;-69
2023/11/16 14:20:30;;;;;;;1999.90;999.90;;;;;;;;;;4878544;29;20379;-75
2023/11/16 14:22:56;;;;;;;1999.90;999.90;;;;;;;;;;4879676;29;20047;-72
2023/11/16 14:25:22;;;;;;;1999.90;999.90;;;;;;;;;;4879824;29;20124;-69
2023/11/16 14:27:48;;;;;;;1999.90;999.90;;;;;;;;;;4879592;29;20035;-77
2023/11/16 14:30:14;;;;;;;1999.90;999.90;;;;;;;;;;4890699;29;20128;-78
2023/11/16 14:32:41;;;;;;;1999.90;999.90;;;;;;;;;;4898437;29;20428;-69
2023/11/16 14:35:08;;;;;;;1999.90;999.90;;;;;;;;;;4898136;29;20033;-79
2023/11/16 14:37:34;;;;;;;1999.90;999.90;;;;;;;;;;4896345;29;20021;-71
2023/11/16 14:40:01;;;;;;;1999.90;999.90;;;;;;;;;;4879283;29;20121;-74
2023/11/16 14:42:27;;;;;;;1999.90;999.90;;;;;;;;;;4879237;29;20119;-73
2023/11/16 14:44:55;;;;;;;1999.90;999.90;;;;;;;;;;4879115;29;20029;-71
2023/11/16 14:47:21;;;;;;;1999.90;999.90;;;;;;;;;;4879409;29;20089;-75
2023/11/16 14:49:47;;;;;;;1999.90;999.90;;;;;;;;;;4878689;29;20167;-78
2023/11/16 14:52:13;;;;;;;1999.90;999.90;;;;;;;;;;4879486;29;20033;-73
2023/11/16 14:54:43;;;;;;;1999.90;999.90;;;;;;;;;;4879016;29;20025;-70
2023/11/16 14:57:09;;;;;;;1999.90;999.90;;;;;;;;;;4879300;29;20477;-69
2023/11/16 14:59:35;;;;;;;1999.90;999.90;;;;;;;;;;4878619;29;20133;-74
2023/11/16 15:02:01;;;;;;;1999.90;999.90;;;;;;;;;;4879107;29;20036;-69
2023/11/16 15:04:27;;;;;;;1999.90;999.90;;;;;;;;;;4878950;29;20036;-73
2023/11/16 15:06:53;;;;;;;1999.90;999.90;;;;;;;;;;4878944;29;20036;-77
2023/11/16 15:09:19;;;;;;;1999.90;999.90;;;;;;;;;;4878745;29;20024;-76
2023/11/16 15:11:45;;;;;;;1999.90;999.90;;;;;;;;;;4879129;29;20793;-74
2023/11/16 15:14:15;;;;;;;1999.90;999.90;;;;;;;;;;4879002;29;20033;-73
2023/11/16 15:16:41;;;;;;;1999.90;999.90;;;;;;;;;;4878758;29;20036;-75
2023/11/16 15:19:08;;;;;;;1999.90;999.90;;;;;;;;;;4878583;29;20092;-80
2023/11/16 15:21:34;;;;;;;1999.90;999.90;;;;;;;;;;4878191;29;20044;-73
2023/11/16 15:24:01;;;;;;;1999.90;999.90;;;;;;;;;;4878317;29;20048;-72
2023/11/16 15:26:29;;;;;;;1999.90;999.90;;;;;;;;;;4877876;29;20029;-69
2023/11/16 15:28:55;;;;;;;1999.90;999.90;;;;;;;;;;4878071;29;20029;-69
2023/11/16 15:31:31;;;;;;;1999.90;999.90;;;;;;;;;;4878580;29;20378;-73
2023/11/16 15:33:57;;;;;;;1999.90;999.90;;;;;;;;;;4878630;29;20025;-72
2023/11/16 15:36:23;;;;;;;1999.90;999.90;;;;;;;;;;4880379;29;20080;-68
2023/11/16 15:38:49;;;;;;;1999.90;999.90;;;;;;;;;;4883290;29;20025;-78
2023/11/16 15:41:16;;;;;;;1999.90;999.90;;;;;;;;;;4878340;29;20030;-77
2023/11/16 15:43:42;;;;;;;1999.90;999.90;;;;;;;;;;4878500;29;20104;-68
2023/11/16 15:46:08;;;;;;;1999.90;999.90;;;;;;;;;;4878120;29;20025;-70
2023/11/16 15:48:34;;;;;;;1999.90;999.90;;;;;;;;;;4877973;29;20113;-67
2023/11/16 15:51:00;;;;;;;1999.90;999.90;;;;;;;;;;4878199;29;20498;-67
2023/11/16 15:53:27;;;;;;;1999.90;999.90;;;;;;;;;;4877881;29;20029;-73
2023/11/16 15:55:53;;;;;;;1999.90;999.90;;;;;;;;;;4877918;29;20143;-69
2023/11/16 15:58:21;;;;;;;1999.90;999.90;;;;;;;;;;4878090;29;20909;-75
2023/11/16 16:00:47;;;;;;;1999.90;999.90;;;;;;;;;;4877700;29;20032;-74
2023/11/16 16:03:13;;;;;;;1999.90;999.90;;;;;;;;;;4877960;29;20037;-73
2023/11/16 16:05:41;;;;;;;1999.90;999.90;;;;;;;;;;4876251;29;20025;-77
2023/11/16 16:08:08;;;;;;;1999.90;999.90;;;;;;;;;;4876576;29;20028;-68
2023/11/16 16:10:34;;;;;;;1999.90;999.90;;;;;;;;;;4877658;29;20077;-71
2023/11/16 16:13:00;;;;;;;1999.90;999.90;;;;;;;;;;4877759;29;20105;-72
2023/11/16 16:15:27;;;;;;;1999.90;999.90;;;;;;;;;;4877550;29;20040;-71
2023/11/16 16:17:54;;;;;;;1999.90;999.90;;;;;;;;;;4877144;29;20029;-73
2023/11/16 16:20:20;;;;;;;1999.90;999.90;;;;;;;;;;4877648;29;20044;-67
2023/11/16 16:22:46;;;;;;;1999.90;999.90;;;;;;;;;;4877489;29;20047;-68
2023/11/16 16:25:13;;;;;;;1999.90;999.90;;;;;;;;;;4877394;29;20192;-70
2023/11/16 16:27:40;;;;;;;1999.90;999.90;;;;;;;;;;4876861;29;20181;-70
2023/11/16 16:30:06;;;;;;;1999.90;999.90;;;;;;;;;;4876940;29;20049;-74
2023/11/16 16:32:35;;;;;;;1999.90;999.90;;;;;;;;;;4877189;29;20025;-68
2023/11/16 16:35:02;;;;;;;1999.90;999.90;;;;;;;;;;4876981;29;20177;-72
2023/11/16 16:37:28;;;;;;;1999.90;999.90;;;;;;;;;;4877084;29;20097;-68
2023/11/16 16:39:54;;;;;;;1999.90;999.90;;;;;;;;;;4876071;29;20033;-70
2023/11/16 16:42:20;;;;;;;1999.90;999.90;;;;;;;;;;4876869;29;20035;-68
2023/11/16 16:44:46;;;;;;;1999.90;999.90;;;;;;;;;;4878799;29;20108;-71
2023/11/16 16:47:14;;;;;;;1999.90;999.90;;;;;;;;;;4879958;29;20486;-67
2023/11/16 16:49:41;;;;;;;1999.90;999.90;;;;;;;;;;4876952;29;20029;-73
2023/11/16 16:52:10;;;;;;;1999.90;999.90;;;;;;;;;;4876796;29;20104;-70
2023/11/16 16:54:36;;;;;;;1999.90;999.90;;;;;;;;;;4877151;29;20391;-67
2023/11/16 16:57:02;;;;;;;1999.90;999.90;;;;;;;;;;4877418;29;20035;-72
2023/11/16 16:59:28;;;;;;;1999.90;999.90;;;;;;;;;;4876945;29;20421;-77
2023/11/16 17:01:55;;;;;;;1999.90;999.90;;;;;;;;;;4876494;29;20045;-69
2023/11/16 17:04:21;;;;;;;1999.90;999.90;;;;;;;;;;4877159;29;20021;-69
2023/11/16 17:06:47;;;;;;;1999.90;999.90;;;;;;;;;;4876608;29;20057;-78
2023/11/16 17:09:16;;;;;;;1999.90;999.90;;;;;;;;;;4877308;29;20249;-68
2023/11/16 17:11:42;;;;;;;1999.90;999.90;;;;;;;;;;4872157;29;20052;-68
2023/11/16 17:14:08;;;;;;;1999.90;999.90;;;;;;;;;;4858504;29;20380;-78
2023/11/16 17:16:35;;;;;;;1999.90;999.90;;;;;;;;;;4858446;29;20418;-70
2023/11/16 17:19:01;;;;;;;1999.90;999.90;;;;;;;;;;4857704;29;20585;-69
2023/11/16 17:21:27;;;;;;;1999.90;999.90;;;;;;;;;;4858262;29;20486;-76
2023/11/16 17:23:54;;;;;;;1999.90;999.90;;;;;;;;;;4857764;29;20385;-71
2023/11/16 17:26:20;;;;;;;1999.90;999.90;;;;;;;;;;4857884;29;20036;-76
2023/11/16 17:28:47;;;;;;;1999.90;999.90;;;;;;;;;;4858104;29;20147;-71
2023/11/16 17:31:13;;;;;;;1999.90;999.90;;;;;;;;;;4839061;29;20060;-71
2023/11/16 17:33:39;;;;;;;1999.90;999.90;;;;;;;;;;4839527;29;20030;-68
2023/11/16 17:36:05;;;;;;;1999.90;999.90;;;;;;;;;;4839753;29;20034;-71
2023/11/16 17:38:35;;;;;;;1999.90;999.90;;;;;;;;;;4839772;29;20057;-63
2023/11/16 17:41:05;;;;;;;1999.90;999.90;;;;;;;;;;4839816;29;20395;-74
2023/11/16 17:43:32;;;;;;;1999.90;999.90;;;;;;;;;;4838943;29;20026;-65
2023/11/16 17:45:58;;;;;;;1999.90;999.90;;;;;;;;;;4839701;29;20086;-77
2023/11/16 17:48:24;;;;;;;1999.90;999.90;;;;;;;;;;4839711;29;20122;-76
2023/11/16 17:50:50;;;;;;;1999.90;999.90;;;;;;;;;;4841884;29;20034;-82
2023/11/16 17:53:16;;;;;;;1999.90;999.90;;;;;;;;;;4844005;29;20061;-68
2023/11/16 17:55:42;;;;;;;1999.90;999.90;;;;;;;;;;4843514;29;20028;-65
2023/11/16 17:58:09;;;;;;;1999.90;999.90;;;;;;;;;;4843330;29;20126;-74
2023/11/16 18:00:35;;;;;;;1999.90;999.90;;;;;;;;;;4843237;29;20075;-67
2023/11/16 18:03:01;;;;;;;1999.90;999.90;;;;;;;;;;4843331;29;20123;-78
2023/11/16 18:05:27;;;;;;;1999.90;999.90;;;;;;;;;;4843279;29;20030;-65
2023/11/16 18:07:53;;;;;;;1999.90;999.90;;;;;;;;;;4843287;29;20551;-79
2023/11/16 18:10:19;;;;;;;1999.90;999.90;;;;;;;;;;4842470;29;20040;-80
2023/11/16 18:12:46;;;;;;;1999.90;999.90;;;;;;;;;;4842860;29;20034;-80
2023/11/16 18:15:15;;;;;;;1999.90;999.90;;;;;;;;;;4843134;29;20030;-82
2023/11/16 18:17:42;;;;;;;1999.90;999.90;;;;;;;;;;4842167;29;20103;-63
2023/11/16 18:20:10;;;;;;;1999.90;999.90;;;;;;;;;;4842470;29;20049;-70
2023/11/16 18:22:36;;;;;;;1999.90;999.90;;;;;;;;;;4842541;29;20094;-81
2023/11/16 18:25:04;;;;;;;1999.90;999.90;;;;;;;;;;4842356;29;20133;-76
2023/11/16 18:27:33;;;;;;;1999.90;999.90;;;;;;;;;;4842734;29;20049;-77
2023/11/16 18:30:00;;;;;;;1999.90;999.90;;;;;;;;;;4842792;29;20054;-65
2023/11/16 18:32:26;;;;;;;1999.90;999.90;;;;;;;;;;4842449;29;20030;-81
2023/11/16 18:34:53;;;;;;;1999.90;999.90;;;;;;;;;;4842702;29;20030;-80
2023/11/16 18:37:19;;;;;;;1999.90;999.90;;;;;;;;;;4842784;29;20037;-74
2023/11/16 18:39:46;;;;;;;1999.90;999.90;;;;;;;;;;4842867;29;20041;-66
2023/11/16 18:42:16;;;;;;;1999.90;999.90;;;;;;;;;;4842130;29;20040;-70
2023/11/16 18:44:42;;;;;;;1999.90;999.90;;;;;;;;;;4842151;29;20022;-69
2023/11/16 18:47:08;;;;;;;1999.90;999.90;;;;;;;;;;4842390;29;20034;-79
2023/11/16 18:49:34;;;;;;;1999.90;999.90;;;;;;;;;;4854631;29;20045;-74
2023/11/16 18:52:01;;;;;;;1999.90;999.90;;;;;;;;;;4861100;29;20061;-75
2023/11/16 18:54:27;;;;;;;1999.90;999.90;;;;;;;;;;4860682;29;20026;-78
2023/11/16 18:56:55;;;;;;;1999.90;999.90;;;;;;;;;;4861090;29;20181;-66
2023/11/16 18:59:21;;;;;;;1999.90;999.90;;;;;;;;;;4860724;29;20486;-64
2023/11/16 19:01:48;;;;;;;1999.90;999.90;;;;;;;;;;4859470;29;20057;-65
2023/11/16 19:04:15;;;;;;;1999.90;999.90;;;;;;;;;;4860679;29;20037;-75
2023/11/16 19:06:41;;;;;;;1999.90;999.90;;;;;;;;;;4860526;29;20038;-65
2023/11/16 19:09:09;;;;;;;1999.90;999.90;;;;;;;;;;4860929;29;20457;-71
2023/11/16 19:11:35;;;;;;;1999.90;999.90;;;;;;;;;;4860598;29;20176;-65
2023/11/16 19:14:02;;;;;;;1999.90;999.90;;;;;;;;;;4860564;29;20035;-77
2023/11/16 19:16:28;;;;;;;1999.90;999.90;;;;;;;;;;4860914;29;20157;-77
2023/11/16 19:18:55;;;;;;;1999.90;999.90;;;;;;;;;;4843715;29;20052;-75
2023/11/16 19:21:21;;;;;;;1999.90;999.90;;;;;;;;;;4860295;29;20044;-73
2023/11/16 19:23:47;;;;;;;1999.90;999.90;;;;;;;;;;4859444;29;20037;-69
2023/11/16 19:26:14;;;;;;;1999.90;999.90;;;;;;;;;;4860588;29;20037;-72
2023/11/16 19:28:40;;;;;;;1999.90;999.90;;;;;;;;;;4860291;29;20455;-70
2023/11/16 19:31:08;;;;;;;1999.90;999.90;;;;;;;;;;4877550;29;20417;-75
2023/11/16 19:33:34;;;;;;;1999.90;999.90;;;;;;;;;;4878350;29;20024;-67
2023/11/16 19:36:02;;;;;;;1999.90;999.90;;;;;;;;;;4878159;29;20040;-74
2023/11/16 19:38:28;;;;;;;1999.90;999.90;;;;;;;;;;4878592;29;20025;-70
2023/11/16 19:40:54;;;;;;;1999.90;999.90;;;;;;;;;;4878289;29;20037;-74
2023/11/16 19:43:20;;;;;;;1999.90;999.90;;;;;;;;;;4878375;29;20041;-69
2023/11/16 19:45:47;;;;;;;1999.90;999.90;;;;;;;;;;4878099;29;20032;-68
2023/11/16 19:48:13;;;;;;;1999.90;999.90;;;;;;;;;;4878326;29;20047;-68
2023/11/16 19:50:41;;;;;;;1999.90;999.90;;;;;;;;;;4878318;29;20027;-69
2023/11/16 19:53:07;;;;;;;1999.90;999.90;;;;;;;;;;4878214;29;20089;-70
2023/11/16 19:55:33;;;;;;;1999.90;999.90;;;;;;;;;;4877717;29;20041;-73
2023/11/16 19:57:59;;;;;;;1999.90;999.90;;;;;;;;;;4878061;29;20041;-67
2023/11/16 20:00:26;;;;;;;1999.90;999.90;;;;;;;;;;4878030;29;20113;-72
2023/11/16 20:02:53;;;;;;;1999.90;999.90;;;;;;;;;;4878067;29;20037;-68
2023/11/16 20:05:19;;;;;;;1999.90;999.90;;;;;;;;;;4877967;29;20086;-75
2023/11/16 20:07:45;;;;;;;1999.90;999.90;;;;;;;;;;4878019;29;20104;-72
2023/11/16 20:10:15;;;;;;;1999.90;999.90;;;;;;;;;;4877642;29;20029;-68
2023/11/16 20:12:41;;;;;;;1999.90;999.90;;;;;;;;;;4877712;29;20096;-69